Terminal Aerodrome Forecast
Issued by NWS

Home | Current Version | Previous Version | Text Only | Print | Product List | Glossary On
Versions: 1 2 3 4 5 6 7 8 9 10 11 12 13 14 15 16 17 18 19 20 21 22 23 24 25 26
000
FTAK31 PANC 270543
TAFADU
TAF
PADU 270543Z 2706/2806 13015G22KT P6SM -SHRA SCT025 BKN035
     FM271300 11012KT P6SM -SHRA BKN010
     FM271800 12010G15KT 5SM -SHRA BR BKN015 OVC035
     FM280100 02006KT P6SM VCSH BKN020 OVC040=

USA.gov is the U.S. government's official web portal to all federal, state and local government web resources and services.